sensor_id;sensor_type;location;lat;lon;timestamp;pressure;altitude;pressure_sealevel;temperature;humidity
64023;BME280;50264;52.088;5.296;2023-02-19T00:00:50;101677.0;;;10.92;99.71
64023;BME280;50264;52.088;5.296;2023-02-19T00:02:26;101678.0;;;10.88;100.0
64023;BME280;50264;52.088;5.296;2023-02-19T00:05:41;101681.0;;;10.92;99.68
64023;BME280;50264;52.088;5.296;2023-02-19T00:07:18;101680.0;;;10.98;99.59
64023;BME280;50264;52.088;5.296;2023-02-19T00:08:56;101678.0;;;11.04;99.81
64023;BME280;50264;52.088;5.296;2023-02-19T00:12:10;101684.0;;;10.95;99.95
64023;BME280;50264;52.088;5.296;2023-02-19T00:13:48;101682.0;;;11.0;99.65
64023;BME280;50264;52.088;5.296;2023-02-19T00:15:25;101685.0;;;10.93;99.89
64023;BME280;50264;52.088;5.296;2023-02-19T00:17:01;101690.0;;;10.9;100.0
64023;BME280;50264;52.088;5.296;2023-02-19T00:20:15;101692.0;;;10.89;100.0
64023;BME280;50264;52.088;5.296;2023-02-19T00:21:52;101691.0;;;10.86;100.0
64023;BME280;50264;52.088;5.296;2023-02-19T00:23:29;101698.0;;;10.77;100.0
64023;BME280;50264;52.088;5.296;2023-02-19T00:26:43;101693.0;;;10.78;100.0
64023;BME280;50264;52.088;5.296;2023-02-19T00:28:21;101692.0;;;10.78;100.0
64023;BME280;50264;52.088;5.296;2023-02-19T00:29:58;101701.0;;;10.75;100.0
64023;BME280;50264;52.088;5.296;2023-02-19T00:33:11;101699.0;;;10.85;100.0
64023;BME280;50264;52.088;5.296;2023-02-19T00:34:48;101696.0;;;10.76;100.0
64023;BME280;50264;52.088;5.296;2023-02-19T00:36:25;101694.0;;;10.7;100.0
64023;BME280;50264;52.088;5.296;2023-02-19T00:38:03;101702.0;;;10.76;100.0
64023;BME280;50264;52.088;5.296;2023-02-19T00:41:20;101696.0;;;10.79;100.0
64023;BME280;50264;52.088;5.296;2023-02-19T00:42:57;101696.0;;;10.72;100.0
64023;BME280;50264;52.088;5.296;2023-02-19T00:44:33;101692.0;;;10.87;100.0
64023;BME280;50264;52.088;5.296;2023-02-19T00:47:46;101705.0;;;10.88;100.0
64023;BME280;50264;52.088;5.296;2023-02-19T00:49:23;101706.0;;;10.91;100.0
64023;BME280;50264;52.088;5.296;2023-02-19T00:50:59;101700.0;;;10.84;100.0
64023;BME280;50264;52.088;5.296;2023-02-19T00:52:36;101700.0;;;10.74;100.0
64023;BME280;50264;52.088;5.296;2023-02-19T00:55:49;101692.0;;;10.78;100.0
64023;BME280;50264;52.088;5.296;2023-02-19T00:57:25;101694.0;;;10.8;100.0
64023;BME280;50264;52.088;5.296;2023-02-19T00:59:03;101702.0;;;10.87;100.0
64023;BME280;50264;52.088;5.296;2023-02-19T01:02:16;101705.0;;;11.01;99.56
64023;BME280;50264;52.088;5.296;2023-02-19T01:03:53;101706.0;;;10.96;99.29
64023;BME280;50264;52.088;5.296;2023-02-19T01:05:30;101707.0;;;10.82;99.23
64023;BME280;50264;52.088;5.296;2023-02-19T01:08:44;101713.0;;;10.91;99.29
64023;BME280;50264;52.088;5.296;2023-02-19T01:10:20;101709.0;;;10.88;98.83
64023;BME280;50264;52.088;5.296;2023-02-19T01:11:56;101713.0;;;10.89;98.86
64023;BME280;50264;52.088;5.296;2023-02-19T01:13:34;101713.0;;;10.87;99.29
64023;BME280;50264;52.088;5.296;2023-02-19T01:16:47;101710.0;;;10.89;99.21
64023;BME280;50264;52.088;5.296;2023-02-19T01:18:23;101715.0;;;10.84;99.13
64023;BME280;50264;52.088;5.296;2023-02-19T01:19:59;101716.0;;;10.68;99.22
64023;BME280;50264;52.088;5.296;2023-02-19T01:23:12;101722.0;;;10.78;99.18
64023;BME280;50264;52.088;5.296;2023-02-19T01:24:48;101728.0;;;10.79;99.38
64023;BME280;50264;52.088;5.296;2023-02-19T01:26:26;101725.0;;;10.84;99.24
64023;BME280;50264;52.088;5.296;2023-02-19T01:29:41;101725.0;;;10.94;98.83
64023;BME280;50264;52.088;5.296;2023-02-19T01:31:20;101733.0;;;10.83;98.95
64023;BME280;50264;52.088;5.296;2023-02-19T01:32:57;101728.0;;;10.88;98.6
64023;BME280;50264;52.088;5.296;2023-02-19T01:34:34;101726.0;;;10.8;98.88
64023;BME280;50264;52.088;5.296;2023-02-19T01:37:47;101728.0;;;10.74;99.33
64023;BME280;50264;52.088;5.296;2023-02-19T01:39:25;101730.0;;;10.8;99.0
64023;BME280;50264;52.088;5.296;2023-02-19T01:41:04;101731.0;;;10.8;98.86
64023;BME280;50264;52.088;5.296;2023-02-19T01:45:27;101731.0;;;10.83;98.64
64023;BME280;50264;52.088;5.296;2023-02-19T01:47:04;101732.0;;;10.91;98.5
64023;BME280;50264;52.088;5.296;2023-02-19T01:50:19;101731.0;;;10.78;98.89
64023;BME280;50264;52.088;5.296;2023-02-19T01:51:58;101735.0;;;10.85;98.58
64023;BME280;50264;52.088;5.296;2023-02-19T01:53:40;101736.0;;;10.82;98.69
64023;BME280;50264;52.088;5.296;2023-02-19T01:56:56;101730.0;;;10.94;97.8
64023;BME280;50264;52.088;5.296;2023-02-19T01:58:35;101733.0;;;10.85;98.15
64023;BME280;50264;52.088;5.296;2023-02-19T02:00:15;101740.0;;;10.79;98.42
64023;BME280;50264;52.088;5.296;2023-02-19T02:01:52;101733.0;;;10.85;98.29
64023;BME280;50264;52.088;5.296;2023-02-19T02:05:09;101734.0;;;10.99;97.69
64023;BME280;50264;52.088;5.296;2023-02-19T02:06:52;101741.0;;;10.77;98.33
64023;BME280;50264;52.088;5.296;2023-02-19T02:10:19;101738.0;;;10.72;98.48
64023;BME280;50264;52.088;5.296;2023-02-19T02:11:56;101738.0;;;10.76;97.65
64023;BME280;50264;52.088;5.296;2023-02-19T02:13:33;101732.0;;;10.8;97.76
64023;BME280;50264;52.088;5.296;2023-02-19T02:15:12;101740.0;;;10.78;97.73
64023;BME280;50264;52.088;5.296;2023-02-19T02:16:54;101740.0;;;10.76;97.79
64023;BME280;50264;52.088;5.296;2023-02-19T02:18:49;101732.0;;;10.88;97.05
64023;BME280;50264;52.088;5.296;2023-02-19T02:20:38;101732.0;;;10.8;97.64
64023;BME280;50264;52.088;5.296;2023-02-19T02:24:28;101736.0;;;10.7;97.44
64023;BME280;50264;52.088;5.296;2023-02-19T02:26:26;101737.0;;;10.66;97.52
64023;BME280;50264;52.088;5.296;2023-02-19T02:28:38;101737.0;;;10.79;97.34
64023;BME280;50264;52.088;5.296;2023-02-19T02:30:31;101745.0;;;10.75;97.36
64023;BME280;50264;52.088;5.296;2023-02-19T02:32:14;101746.0;;;10.67;97.62
64023;BME280;50264;52.088;5.296;2023-02-19T02:34:00;101739.0;;;10.68;96.85
64023;BME280;50264;52.088;5.296;2023-02-19T02:35:41;101746.0;;;10.75;97.04
64023;BME280;50264;52.088;5.296;2023-02-19T02:37:22;101743.0;;;10.78;96.67
64023;BME280;50264;52.088;5.296;2023-02-19T02:40:46;101746.0;;;10.77;96.76
64023;BME280;50264;52.088;5.296;2023-02-19T02:42:26;101748.0;;;10.65;96.55
64023;BME280;50264;52.088;5.296;2023-02-19T02:44:03;101744.0;;;10.63;97.33
64023;BME280;50264;52.088;5.296;2023-02-19T02:45:40;101747.0;;;10.6;96.69
64023;BME280;50264;52.088;5.296;2023-02-19T02:49:23;101750.0;;;10.69;97.15
64023;BME280;50264;52.088;5.296;2023-02-19T02:51:05;101751.0;;;10.61;97.6
64023;BME280;50264;52.088;5.296;2023-02-19T02:55:09;101758.0;;;10.66;97.49
64023;BME280;50264;52.088;5.296;2023-02-19T02:56:47;101759.0;;;10.73;97.16
64023;BME280;50264;52.088;5.296;2023-02-19T02:58:27;101757.0;;;10.69;97.44
64023;BME280;50264;52.088;5.296;2023-02-19T03:02:21;101761.0;;;10.69;97.75
64023;BME280;50264;52.088;5.296;2023-02-19T03:04:02;101763.0;;;10.59;98.14
64023;BME280;50264;52.088;5.296;2023-02-19T03:06:01;101759.0;;;10.7;98.0
64023;BME280;50264;52.088;5.296;2023-02-19T03:07:42;101765.0;;;10.62;97.86
64023;BME280;50264;52.088;5.296;2023-02-19T03:09:25;101764.0;;;10.65;98.24
64023;BME280;50264;52.088;5.296;2023-02-19T03:19:22;101776.0;;;10.65;97.88
64023;BME280;50264;52.088;5.296;2023-02-19T03:22:43;101771.0;;;10.77;97.24
64023;BME280;50264;52.088;5.296;2023-02-19T03:26:11;101772.0;;;10.59;97.18
64023;BME280;50264;52.088;5.296;2023-02-19T03:27:49;101782.0;;;10.52;97.68
64023;BME280;50264;52.088;5.296;2023-02-19T03:31:09;101778.0;;;10.43;97.66
64023;BME280;50264;52.088;5.296;2023-02-19T03:32:49;101782.0;;;10.5;97.7
64023;BME280;50264;52.088;5.296;2023-02-19T03:34:33;101786.0;;;10.47;98.04
64023;BME280;50264;52.088;5.296;2023-02-19T03:36:13;101791.0;;;10.5;98.11
64023;BME280;50264;52.088;5.296;2023-02-19T03:38:02;101787.0;;;10.42;98.31
64023;BME280;50264;52.088;5.296;2023-02-19T03:41:24;101796.0;;;10.36;97.69
64023;BME280;50264;52.088;5.296;2023-02-19T03:43:15;101796.0;;;10.35;98.03
64023;BME280;50264;52.088;5.296;2023-02-19T03:45:01;101799.0;;;10.36;98.74
64023;BME280;50264;52.088;5.296;2023-02-19T03:46:54;101791.0;;;10.19;99.17
64023;BME280;50264;52.088;5.296;2023-02-19T03:48:35;101798.0;;;10.16;99.78
64023;BME280;50264;52.088;5.296;2023-02-19T03:52:01;101803.0;;;10.23;99.83
64023;BME280;50264;52.088;5.296;2023-02-19T03:53:50;101815.0;;;10.23;99.06
64023;BME280;50264;52.088;5.296;2023-02-19T03:55:31;101807.0;;;10.34;99.15
64023;BME280;50264;52.088;5.296;2023-02-19T03:57:18;101809.0;;;10.35;98.86
64023;BME280;50264;52.088;5.296;2023-02-19T03:59:00;101816.0;;;10.4;98.92
64023;BME280;50264;52.088;5.296;2023-02-19T04:02:29;101823.0;;;10.4;99.07
64023;BME280;50264;52.088;5.296;2023-02-19T04:04:15;101826.0;;;10.35;98.46
64023;BME280;50264;52.088;5.296;2023-02-19T04:05:58;101824.0;;;10.39;98.72
64023;BME280;50264;52.088;5.296;2023-02-19T04:07:41;101827.0;;;10.28;99.1
64023;BME280;50264;52.088;5.296;2023-02-19T04:09:21;101837.0;;;10.3;99.24
64023;BME280;50264;52.088;5.296;2023-02-19T04:12:40;101831.0;;;10.29;99.46
64023;BME280;50264;52.088;5.296;2023-02-19T04:14:23;101833.0;;;10.27;99.61
64023;BME280;50264;52.088;5.296;2023-02-19T04:16:07;101842.0;;;10.24;100.0
64023;BME280;50264;52.088;5.296;2023-02-19T04:17:59;101841.0;;;10.25;99.77
64023;BME280;50264;52.088;5.296;2023-02-19T04:21:19;101842.0;;;10.26;99.2
64023;BME280;50264;52.088;5.296;2023-02-19T04:22:57;101840.0;;;10.21;99.75
64023;BME280;50264;52.088;5.296;2023-02-19T04:24:37;101850.0;;;10.26;100.0
64023;BME280;50264;52.088;5.296;2023-02-19T04:26:19;101842.0;;;10.32;99.35
64023;BME280;50264;52.088;5.296;2023-02-19T04:29:35;101846.0;;;10.39;99.14
64023;BME280;50264;52.088;5.296;2023-02-19T04:31:12;101853.0;;;10.27;99.11
64023;BME280;50264;52.088;5.296;2023-02-19T04:32:49;101860.0;;;10.23;99.58
64023;BME280;50264;52.088;5.296;2023-02-19T04:34:26;101853.0;;;10.25;99.24
64023;BME280;50264;52.088;5.296;2023-02-19T04:37:42;101857.0;;;10.36;99.12
64023;BME280;50264;52.088;5.296;2023-02-19T04:39:19;101865.0;;;10.36;99.02
64023;BME280;50264;52.088;5.296;2023-02-19T04:40:56;101871.0;;;10.28;98.64
64023;BME280;50264;52.088;5.296;2023-02-19T04:44:10;101877.0;;;10.31;99.02
64023;BME280;50264;52.088;5.296;2023-02-19T04:45:47;101881.0;;;10.28;99.22
64023;BME280;50264;52.088;5.296;2023-02-19T04:47:24;101885.0;;;10.14;99.73
64023;BME280;50264;52.088;5.296;2023-02-19T04:49:00;101886.0;;;10.17;99.64
64023;BME280;50264;52.088;5.296;2023-02-19T04:52:14;101887.0;;;10.15;99.6
64023;BME280;50264;52.088;5.296;2023-02-19T04:53:52;101895.0;;;10.21;99.47
64023;BME280;50264;52.088;5.296;2023-02-19T04:55:27;101902.0;;;10.18;98.87
64023;BME280;50264;52.088;5.296;2023-02-19T04:58:41;101902.0;;;10.18;98.98
64023;BME280;50264;52.088;5.296;2023-02-19T05:00:19;101910.0;;;10.22;99.01
64023;BME280;50264;52.088;5.296;2023-02-19T05:01:57;101909.0;;;10.26;98.59
64023;BME280;50264;52.088;5.296;2023-02-19T05:05:11;101913.0;;;10.27;98.85
64023;BME280;50264;52.088;5.296;2023-02-19T05:06:47;101909.0;;;10.22;98.79
64023;BME280;50264;52.088;5.296;2023-02-19T05:08:24;101906.0;;;10.36;97.71
64023;BME280;50264;52.088;5.296;2023-02-19T05:13:14;101919.0;;;10.32;97.79
64023;BME280;50264;52.088;5.296;2023-02-19T05:14:50;101919.0;;;10.23;98.03
64023;BME280;50264;52.088;5.296;2023-02-19T05:16:27;101923.0;;;10.37;97.33
64023;BME280;50264;52.088;5.296;2023-02-19T05:19:40;101923.0;;;10.28;96.52
64023;BME280;50264;52.088;5.296;2023-02-19T05:21:16;101928.0;;;10.27;96.95
64023;BME280;50264;52.088;5.296;2023-02-19T05:22:54;101933.0;;;10.34;96.74
64023;BME280;50264;52.088;5.296;2023-02-19T05:26:11;101931.0;;;10.24;96.23
64023;BME280;50264;52.088;5.296;2023-02-19T05:27:48;101931.0;;;10.3;96.54
64023;BME280;50264;52.088;5.296;2023-02-19T05:29:24;101935.0;;;10.45;95.52
64023;BME280;50264;52.088;5.296;2023-02-19T05:31:03;101940.0;;;10.34;95.78
64023;BME280;50264;52.088;5.296;2023-02-19T05:34:17;101943.0;;;10.26;95.85
64023;BME280;50264;52.088;5.296;2023-02-19T05:35:55;101946.0;;;10.28;94.81
64023;BME280;50264;52.088;5.296;2023-02-19T05:37:31;101941.0;;;10.28;95.53
64023;BME280;50264;52.088;5.296;2023-02-19T05:40:47;101940.0;;;10.38;95.3
64023;BME280;50264;52.088;5.296;2023-02-19T05:42:24;101940.0;;;10.36;94.79
64023;BME280;50264;52.088;5.296;2023-02-19T05:44:00;101938.0;;;10.26;95.09
64023;BME280;50264;52.088;5.296;2023-02-19T05:45:37;101935.0;;;10.32;94.91
64023;BME280;50264;52.088;5.296;2023-02-19T05:48:52;101936.0;;;10.28;94.66
64023;BME280;50264;52.088;5.296;2023-02-19T05:50:31;101935.0;;;10.23;94.86
64023;BME280;50264;52.088;5.296;2023-02-19T05:52:08;101933.0;;;10.28;95.3
64023;BME280;50264;52.088;5.296;2023-02-19T05:55:21;101936.0;;;10.25;94.68
64023;BME280;50264;52.088;5.296;2023-02-19T05:56:58;101939.0;;;10.32;94.57
64023;BME280;50264;52.088;5.296;2023-02-19T05:58:34;101942.0;;;10.32;94.14
64023;BME280;50264;52.088;5.296;2023-02-19T06:00:14;101946.0;;;10.37;93.89
64023;BME280;50264;52.088;5.296;2023-02-19T06:03:29;101951.0;;;10.38;93.82
64023;BME280;50264;52.088;5.296;2023-02-19T06:05:07;101955.0;;;10.42;93.72
64023;BME280;50264;52.088;5.296;2023-02-19T06:06:43;101951.0;;;10.4;93.76
64023;BME280;50264;52.088;5.296;2023-02-19T06:09:57;101948.0;;;10.29;94.41
64023;BME280;50264;52.088;5.296;2023-02-19T06:11:34;101948.0;;;10.31;93.54
64023;BME280;50264;52.088;5.296;2023-02-19T06:13:11;101955.0;;;10.31;94.31
64023;BME280;50264;52.088;5.296;2023-02-19T06:14:47;101963.0;;;10.37;94.28
64023;BME280;50264;52.088;5.296;2023-02-19T06:18:01;101972.0;;;10.33;94.35
64023;BME280;50264;52.088;5.296;2023-02-19T06:19:38;101973.0;;;10.26;94.9
64023;BME280;50264;52.088;5.296;2023-02-19T06:21:16;101985.0;;;10.28;95.07
64023;BME280;50264;52.088;5.296;2023-02-19T06:24:30;101983.0;;;10.17;95.84
64023;BME280;50264;52.088;5.296;2023-02-19T06:26:09;101989.0;;;10.23;96.57
64023;BME280;50264;52.088;5.296;2023-02-19T06:27:46;101992.0;;;10.09;96.84
64023;BME280;50264;52.088;5.296;2023-02-19T06:31:00;101993.0;;;10.07;97.16
64023;BME280;50264;52.088;5.296;2023-02-19T06:32:37;101997.0;;;10.06;97.47
64023;BME280;50264;52.088;5.296;2023-02-19T06:34:15;102000.0;;;10.14;97.36
64023;BME280;50264;52.088;5.296;2023-02-19T06:35:52;102001.0;;;10.02;97.73
64023;BME280;50264;52.088;5.296;2023-02-19T06:39:05;102001.0;;;9.85;98.69
64023;BME280;50264;52.088;5.296;2023-02-19T06:40:42;102002.0;;;9.82;99.42
64023;BME280;50264;52.088;5.296;2023-02-19T06:42:18;102001.0;;;9.94;99.24
64023;BME280;50264;52.088;5.296;2023-02-19T06:45:32;102007.0;;;9.91;99.52
64023;BME280;50264;52.088;5.296;2023-02-19T06:47:09;102009.0;;;9.99;99.09
64023;BME280;50264;52.088;5.296;2023-02-19T06:48:45;102014.0;;;9.93;99.41
64023;BME280;50264;52.088;5.296;2023-02-19T06:50:23;102016.0;;;9.81;99.49
64023;BME280;50264;52.088;5.296;2023-02-19T06:53:37;102019.0;;;9.89;99.62
64023;BME280;50264;52.088;5.296;2023-02-19T06:55:14;102024.0;;;9.78;99.93
64023;BME280;50264;52.088;5.296;2023-02-19T06:56:51;102025.0;;;9.82;99.48
64023;BME280;50264;52.088;5.296;2023-02-19T07:00:07;102032.0;;;9.85;98.57
64023;BME280;50264;52.088;5.296;2023-02-19T07:01:44;102036.0;;;9.84;99.0
64023;BME280;50264;52.088;5.296;2023-02-19T07:03:21;102037.0;;;9.74;99.22
64023;BME280;50264;52.088;5.296;2023-02-19T07:06:34;102041.0;;;9.75;99.5
64023;BME280;50264;52.088;5.296;2023-02-19T07:08:11;102042.0;;;9.89;99.1
64023;BME280;50264;52.088;5.296;2023-02-19T07:09:48;102051.0;;;9.78;99.13
64023;BME280;50264;52.088;5.296;2023-02-19T07:11:25;102053.0;;;9.81;99.38
64023;BME280;50264;52.088;5.296;2023-02-19T07:14:40;102051.0;;;9.8;99.07
64023;BME280;50264;52.088;5.296;2023-02-19T07:16:17;102057.0;;;9.91;98.92
64023;BME280;50264;52.088;5.296;2023-02-19T07:17:54;102061.0;;;9.91;98.63
64023;BME280;50264;52.088;5.296;2023-02-19T07:21:10;102066.0;;;9.9;98.69
64023;BME280;50264;52.088;5.296;2023-02-19T07:22:48;102067.0;;;9.88;98.65
64023;BME280;50264;52.088;5.296;2023-02-19T07:24:25;102071.0;;;9.89;98.47
64023;BME280;50264;52.088;5.296;2023-02-19T07:26:03;102080.0;;;9.94;98.63
64023;BME280;50264;52.088;5.296;2023-02-19T07:29:19;102080.0;;;9.96;98.39
64023;BME280;50264;52.088;5.296;2023-02-19T07:30:59;102078.0;;;9.89;98.47
64023;BME280;50264;52.088;5.296;2023-02-19T07:32:39;102078.0;;;9.9;98.27
64023;BME280;50264;52.088;5.296;2023-02-19T07:35:52;102082.0;;;9.93;98.39
64023;BME280;50264;52.088;5.296;2023-02-19T07:37:29;102089.0;;;10.0;98.27
64023;BME280;50264;52.088;5.296;2023-02-19T07:39:05;102092.0;;;9.91;98.43
64023;BME280;50264;52.088;5.296;2023-02-19T07:40:49;102101.0;;;9.97;97.68
64023;BME280;50264;52.088;5.296;2023-02-19T07:44:02;102090.0;;;9.94;98.08
64023;BME280;50264;52.088;5.296;2023-02-19T07:45:39;102093.0;;;9.82;98.87
64023;BME280;50264;52.088;5.296;2023-02-19T07:47:15;102100.0;;;9.98;98.79
64023;BME280;50264;52.088;5.296;2023-02-19T07:50:27;102101.0;;;9.94;98.84
64023;BME280;50264;52.088;5.296;2023-02-19T07:52:03;102105.0;;;10.01;98.59
64023;BME280;50264;52.088;5.296;2023-02-19T07:53:39;102107.0;;;10.05;98.45
64023;BME280;50264;52.088;5.296;2023-02-19T07:55:16;102110.0;;;9.84;98.8
64023;BME280;50264;52.088;5.296;2023-02-19T07:58:29;102121.0;;;9.94;98.6
64023;BME280;50264;52.088;5.296;2023-02-19T08:00:08;102119.0;;;9.98;98.44
64023;BME280;50264;52.088;5.296;2023-02-19T08:03:01;102122.0;;;9.9;98.82
64023;BME280;50264;52.088;5.296;2023-02-19T08:04:38;102124.0;;;9.89;99.03
64023;BME280;50264;52.088;5.296;2023-02-19T08:06:15;102126.0;;;9.96;98.93
64023;BME280;50264;52.088;5.296;2023-02-19T08:07:53;102127.0;;;9.99;98.79
64023;BME280;50264;52.088;5.296;2023-02-19T08:13:28;102128.0;;;10.01;98.97
64023;BME280;50264;52.088;5.296;2023-02-19T08:15:06;102132.0;;;10.06;97.8
64023;BME280;50264;52.088;5.296;2023-02-19T08:16:47;102134.0;;;10.02;98.28
64023;BME280;50264;52.088;5.296;2023-02-19T08:18:26;102145.0;;;10.05;97.73
64023;BME280;50264;52.088;5.296;2023-02-19T08:21:41;102145.0;;;9.98;98.24
64023;BME280;50264;52.088;5.296;2023-02-19T08:23:20;102151.0;;;9.98;98.65
64023;BME280;50264;52.088;5.296;2023-02-19T08:24:56;102156.0;;;10.07;98.59
64023;BME280;50264;52.088;5.296;2023-02-19T08:29:47;102166.0;;;9.94;99.33
64023;BME280;50264;52.088;5.296;2023-02-19T08:31:23;102168.0;;;9.97;99.91
64023;BME280;50264;52.088;5.296;2023-02-19T08:33:00;102170.0;;;9.99;99.25
64023;BME280;50264;52.088;5.296;2023-02-19T08:36:13;102168.0;;;9.92;99.89
64023;BME280;50264;52.088;5.296;2023-02-19T08:37:52;102170.0;;;9.9;100.0
64023;BME280;50264;52.088;5.296;2023-02-19T08:39:31;102174.0;;;9.96;99.83
64023;BME280;50264;52.088;5.296;2023-02-19T08:42:47;102177.0;;;9.84;99.85
64023;BME280;50264;52.088;5.296;2023-02-19T08:44:24;102178.0;;;9.91;99.75
64023;BME280;50264;52.088;5.296;2023-02-19T08:46:00;102182.0;;;9.92;100.0
64023;BME280;50264;52.088;5.296;2023-02-19T08:47:38;102184.0;;;9.96;99.74
64023;BME280;50264;52.088;5.296;2023-02-19T08:50:54;102188.0;;;10.01;99.75
64023;BME280;50264;52.088;5.296;2023-02-19T08:52:31;102191.0;;;10.07;99.34
64023;BME280;50264;52.088;5.296;2023-02-19T08:54:07;102182.0;;;10.03;99.09
64023;BME280;50264;52.088;5.296;2023-02-19T08:57:20;102186.0;;;10.1;99.1
64023;BME280;50264;52.088;5.296;2023-02-19T08:58:56;102187.0;;;10.23;98.86
64023;BME280;50264;52.088;5.296;2023-02-19T09:00:32;102193.0;;;10.17;98.24
64023;BME280;50264;52.088;5.296;2023-02-19T09:03:44;102192.0;;;10.19;98.27
64023;BME280;50264;52.088;5.296;2023-02-19T09:05:20;102190.0;;;10.23;98.75
64023;BME280;50264;52.088;5.296;2023-02-19T09:06:57;102183.0;;;10.1;98.12
64023;BME280;50264;52.088;5.296;2023-02-19T09:08:33;102193.0;;;10.06;98.45
64023;BME280;50264;52.088;5.296;2023-02-19T09:11:48;102181.0;;;10.09;99.03
64023;BME280;50264;52.088;5.296;2023-02-19T09:13:25;102182.0;;;10.13;99.07
64023;BME280;50264;52.088;5.296;2023-02-19T09:15:03;102183.0;;;10.1;98.52
64023;BME280;50264;52.088;5.296;2023-02-19T09:18:16;102193.0;;;10.15;98.33
64023;BME280;50264;52.088;5.296;2023-02-19T09:19:53;102210.0;;;10.14;98.79
64023;BME280;50264;52.088;5.296;2023-02-19T09:21:30;102212.0;;;10.06;98.83
64023;BME280;50264;52.088;5.296;2023-02-19T09:23:06;102205.0;;;10.23;97.51
64023;BME280;50264;52.088;5.296;2023-02-19T09:26:19;102200.0;;;10.26;97.23
64023;BME280;50264;52.088;5.296;2023-02-19T09:27:56;102208.0;;;10.44;97.26
64023;BME280;50264;52.088;5.296;2023-02-19T09:29:34;102208.0;;;10.44;97.02
64023;BME280;50264;52.088;5.296;2023-02-19T09:32:50;102217.0;;;10.46;97.01
64023;BME280;50264;52.088;5.296;2023-02-19T09:34:27;102226.0;;;10.39;97.09
64023;BME280;50264;52.088;5.296;2023-02-19T09:36:04;102243.0;;;10.44;96.27
64023;BME280;50264;52.088;5.296;2023-02-19T09:37:42;102247.0;;;10.47;96.23
64023;BME280;50264;52.088;5.296;2023-02-19T09:40:57;102255.0;;;10.39;95.96
64023;BME280;50264;52.088;5.296;2023-02-19T09:42:41;102261.0;;;10.48;96.53
64023;BME280;50264;52.088;5.296;2023-02-19T09:44:22;102262.0;;;10.51;95.92
64023;BME280;50264;52.088;5.296;2023-02-19T09:48:04;102256.0;;;10.59;96.56
64023;BME280;50264;52.088;5.296;2023-02-19T09:49:51;102269.0;;;10.6;96.03
64023;BME280;50264;52.088;5.296;2023-02-19T09:51:30;102269.0;;;10.36;95.94
64023;BME280;50264;52.088;5.296;2023-02-19T09:53:13;102273.0;;;10.33;95.8
64023;BME280;50264;52.088;5.296;2023-02-19T09:55:00;102282.0;;;10.39;96.11
64023;BME280;50264;52.088;5.296;2023-02-19T09:56:38;102283.0;;;10.51;96.32
64023;BME280;50264;52.088;5.296;2023-02-19T10:00:05;102288.0;;;10.42;96.13
64023;BME280;50264;52.088;5.296;2023-02-19T10:01:58;102291.0;;;10.27;96.84
64023;BME280;50264;52.088;5.296;2023-02-19T10:03:43;102294.0;;;10.32;95.84
64023;BME280;50264;52.088;5.296;2023-02-19T10:05:22;102294.0;;;10.42;95.53
64023;BME280;50264;52.088;5.296;2023-02-19T10:08:39;102298.0;;;10.48;94.7
64023;BME280;50264;52.088;5.296;2023-02-19T10:10:23;102305.0;;;10.47;94.56
64023;BME280;50264;52.088;5.296;2023-02-19T10:12:12;102305.0;;;10.35;94.81
64023;BME280;50264;52.088;5.296;2023-02-19T10:13:53;102312.0;;;10.4;95.66
64023;BME280;50264;52.088;5.296;2023-02-19T10:15:44;102309.0;;;10.37;95.2
64023;BME280;50264;52.088;5.296;2023-02-19T10:19:08;102316.0;;;10.39;95.4
64023;BME280;50264;52.088;5.296;2023-02-19T10:20:46;102315.0;;;10.45;95.06
64023;BME280;50264;52.088;5.296;2023-02-19T10:22:25;102325.0;;;10.52;95.09
64023;BME280;50264;52.088;5.296;2023-02-19T10:24:04;102331.0;;;10.58;94.61
64023;BME280;50264;52.088;5.296;2023-02-19T10:27:25;102326.0;;;10.69;95.05
64023;BME280;50264;52.088;5.296;2023-02-19T10:29:03;102330.0;;;10.68;94.97
64023;BME280;50264;52.088;5.296;2023-02-19T10:30:41;102332.0;;;10.68;94.06
64023;BME280;50264;52.088;5.296;2023-02-19T10:32:21;102338.0;;;10.68;95.01
64023;BME280;50264;52.088;5.296;2023-02-19T10:35:51;102346.0;;;10.55;94.76
64023;BME280;50264;52.088;5.296;2023-02-19T10:37:31;102351.0;;;10.3;93.78
64023;BME280;50264;52.088;5.296;2023-02-19T10:39:30;102356.0;;;10.34;94.48
64023;BME280;50264;52.088;5.296;2023-02-19T10:41:15;102357.0;;;10.46;94.0
64023;BME280;50264;52.088;5.296;2023-02-19T10:42:57;102360.0;;;10.36;93.58
64023;BME280;50264;52.088;5.296;2023-02-19T10:46:21;102353.0;;;10.47;94.16
64023;BME280;50264;52.088;5.296;2023-02-19T10:47:59;102348.0;;;10.48;93.86
64023;BME280;50264;52.088;5.296;2023-02-19T10:49:38;102349.0;;;10.45;93.38
64023;BME280;50264;52.088;5.296;2023-02-19T10:51:26;102353.0;;;10.45;93.8
64023;BME280;50264;52.088;5.296;2023-02-19T10:53:19;102355.0;;;10.44;93.07
64023;BME280;50264;52.088;5.296;2023-02-19T10:57:15;102363.0;;;10.44;92.74
64023;BME280;50264;52.088;5.296;2023-02-19T10:59:14;102365.0;;;10.51;93.67
64023;BME280;50264;52.088;5.296;2023-02-19T11:01:10;102364.0;;;10.37;94.64
64023;BME280;50264;52.088;5.296;2023-02-19T11:03:26;102355.0;;;10.41;95.27
64023;BME280;50264;52.088;5.296;2023-02-19T11:05:14;102351.0;;;10.37;94.94
64023;BME280;50264;52.088;5.296;2023-02-19T11:06:53;102350.0;;;10.23;95.84
64023;BME280;50264;52.088;5.296;2023-02-19T11:08:35;102350.0;;;10.05;94.51
64023;BME280;50264;52.088;5.296;2023-02-19T11:10:25;102347.0;;;10.03;96.34
64023;BME280;50264;52.088;5.296;2023-02-19T11:12:05;102349.0;;;10.0;96.38
64023;BME280;50264;52.088;5.296;2023-02-19T11:15:21;102351.0;;;9.96;97.68
64023;BME280;50264;52.088;5.296;2023-02-19T11:16:59;102355.0;;;10.06;98.1
64023;BME280;50264;52.088;5.296;2023-02-19T11:18:39;102360.0;;;10.03;97.8
64023;BME280;50264;52.088;5.296;2023-02-19T11:20:16;102364.0;;;9.97;97.96
64023;BME280;50264;52.088;5.296;2023-02-19T11:23:34;102367.0;;;10.06;98.23
64023;BME280;50264;52.088;5.296;2023-02-19T11:25:19;102366.0;;;10.07;98.99
64023;BME280;50264;52.088;5.296;2023-02-19T11:26:56;102370.0;;;9.98;98.58
64023;BME280;50264;52.088;5.296;2023-02-19T11:30:31;102370.0;;;10.0;97.76